createdAt,value
2018-12-11T00:00:13.637Z,24.37
2018-12-11T00:00:48.664Z,23.67
2018-12-11T00:01:23.597Z,24.87
2018-12-11T00:01:58.355Z,25.40
2018-12-11T00:02:33.418Z,27.93
2018-12-11T00:03:08.334Z,22.10
2018-12-11T00:03:43.274Z,30.37
2018-12-11T00:04:17.994Z,24.60
2018-12-11T00:04:52.957Z,29.12
2018-12-11T00:05:27.997Z,29.67
2018-12-11T00:06:02.854Z,33.00
2018-12-11T00:06:37.744Z,32.73
2018-12-11T00:07:12.534Z,31.73
2018-12-11T00:07:47.414Z,32.23
2018-12-11T00:08:22.397Z,41.88
2018-12-11T00:08:57.314Z,44.27
2018-12-11T00:09:32.171Z,38.42
2018-12-11T00:10:07.371Z,40.17
2018-12-11T00:10:42.372Z,39.75
2018-12-11T00:11:17.631Z,29.75
2018-12-11T00:11:53.071Z,33.98
2018-12-11T00:12:27.971Z,39.20
2018-12-11T00:13:03.372Z,28.20
2018-12-11T00:13:38.551Z,39.23
2018-12-11T00:14:13.971Z,29.72
2018-12-11T00:14:49.251Z,33.23
2018-12-11T00:15:24.214Z,38.02
2018-12-11T00:15:59.339Z,34.85
2018-12-11T00:16:34.232Z,46.13
2018-12-11T00:17:09.252Z,36.88
2018-12-11T00:17:44.531Z,46.02
2018-12-11T00:18:19.311Z,36.55
2018-12-11T00:18:54.231Z,39.50
2018-12-11T00:19:29.093Z,42.15
2018-12-11T00:20:04.394Z,36.45
2018-12-11T00:20:39.471Z,38.17
2018-12-11T00:21:14.351Z,37.75
2018-12-11T00:21:49.231Z,49.00
2018-12-11T00:22:24.171Z,48.75
2018-12-11T00:22:59.111Z,38.90
2018-12-11T00:23:34.071Z,37.20
2018-12-11T00:24:09.391Z,35.52
2018-12-11T00:24:44.451Z,32.10
2018-12-11T00:25:19.331Z,44.48
2018-12-11T00:25:54.891Z,46.73
2018-12-11T00:26:30.031Z,38.92
2018-12-11T00:27:05.031Z,41.98
2018-12-11T00:27:39.891Z,50.63
2018-12-11T00:28:14.751Z,39.92
2018-12-11T00:28:49.691Z,32.30
2018-12-11T00:29:24.711Z,44.45
2018-12-11T00:29:59.671Z,46.42
2018-12-11T00:30:34.771Z,42.30
2018-12-11T00:31:09.712Z,40.28
2018-12-11T00:31:44.911Z,35.03
2018-12-11T00:32:19.961Z,39.95
2018-12-11T00:32:54.911Z,46.25
2018-12-11T00:33:29.814Z,41.83
2018-12-11T00:34:04.991Z,46.25
2018-12-11T00:34:40.051Z,44.90
2018-12-11T00:35:15.211Z,43.85
2018-12-11T00:35:50.191Z,43.25
2018-12-11T00:36:25.051Z,43.15
2018-12-11T00:37:00.072Z,43.90
2018-12-11T00:37:35.131Z,47.65
2018-12-11T00:38:10.111Z,20.15
2018-12-11T00:38:45.111Z,51.25
2018-12-11T00:39:20.111Z,43.58
2018-12-11T00:39:55.191Z,41.90
2018-12-11T00:40:30.111Z,51.18
2018-12-11T00:41:05.151Z,48.60
2018-12-11T00:41:40.151Z,47.43
2018-12-11T00:42:15.271Z,37.98
2018-12-11T00:42:50.192Z,44.83
2018-12-11T00:43:25.375Z,48.63
2018-12-11T00:44:00.271Z,41.10
2018-12-11T00:44:35.399Z,31.80
2018-12-11T00:45:10.570Z,52.10
2018-12-11T00:45:45.571Z,45.80
2018-12-11T00:46:20.472Z,41.70
2018-12-11T00:46:55.457Z,45.98
2018-12-11T00:47:30.613Z,40.65
2018-12-11T00:48:05.671Z,53.48
2018-12-11T00:48:40.571Z,58.80
2018-12-11T00:49:15.511Z,38.63
2018-12-11T00:49:50.491Z,39.65
2018-12-11T00:50:25.691Z,51.90
2018-12-11T00:51:00.632Z,46.45
2018-12-11T00:51:35.594Z,45.70
2018-12-11T00:52:10.431Z,51.30
2018-12-11T00:52:45.431Z,46.88
2018-12-11T00:53:20.411Z,46.15
2018-12-11T00:53:55.371Z,53.60
2018-12-11T00:54:30.291Z,43.50
2018-12-11T00:55:05.511Z,42.35
2018-12-11T00:55:40.492Z,48.33
2018-12-11T00:56:15.562Z,50.33
2018-12-11T00:56:50.571Z,48.45
2018-12-11T00:57:25.631Z,52.27
2018-12-11T00:58:00.571Z,46.95
2018-12-11T00:58:35.811Z,56.10
2018-12-11T00:59:10.751Z,56.02
2018-12-11T00:59:45.719Z,50.83
2018-12-11T01:00:20.771Z,48.60
2018-12-11T01:00:55.713Z,48.25
2018-12-11T01:01:30.833Z,47.98
2018-12-11T01:02:05.851Z,45.28
2018-12-11T01:02:40.851Z,47.93
2018-12-11T01:03:15.695Z,49.63
2018-12-11T01:03:50.652Z,48.98
2018-12-11T01:04:25.651Z,54.35
2018-12-11T01:05:00.671Z,47.95
2018-12-11T01:05:35.791Z,49.18
2018-12-11T01:06:10.792Z,60.55
2018-12-11T01:06:45.751Z,51.68
2018-12-11T01:07:20.851Z,51.35
2018-12-11T01:07:55.891Z,47.73
2018-12-11T01:08:31.181Z,46.10
2018-12-11T01:09:07.519Z,48.05
2018-12-11T01:09:42.531Z,52.60
2018-12-11T01:10:17.493Z,49.77
2018-12-11T01:10:52.492Z,46.73
2018-12-11T01:11:27.674Z,47.05
2018-12-11T01:12:02.621Z,50.38
2018-12-11T01:12:37.671Z,61.88
2018-12-11T01:13:12.611Z,39.90
2018-12-11T01:13:47.611Z,49.15
2018-12-11T01:14:22.531Z,60.40
2018-12-11T01:14:57.671Z,61.33
2018-12-11T01:15:32.588Z,46.30
2018-12-11T01:16:07.572Z,58.58
2018-12-11T01:16:42.647Z,51.18
2018-12-11T01:17:17.571Z,50.75
2018-12-11T01:17:52.553Z,60.03
2018-12-11T01:18:27.471Z,62.60
2018-12-11T01:19:02.411Z,46.92
2018-12-11T01:19:37.400Z,57.48
2018-12-11T01:20:12.512Z,58.00
2018-12-11T01:20:47.473Z,51.00
2018-12-11T01:21:22.431Z,70.47
2018-12-11T01:21:57.371Z,59.90
2018-12-11T01:22:32.411Z,68.60
2018-12-11T01:23:07.411Z,62.10
2018-12-11T01:23:42.431Z,62.45
2018-12-11T01:24:17.572Z,61.42
2018-12-11T01:24:52.851Z,66.33
2018-12-11T01:25:27.652Z,61.40
2018-12-11T01:26:02.498Z,66.90
2018-12-11T01:26:37.371Z,59.45
2018-12-11T01:27:12.330Z,62.98
2018-12-11T01:27:47.160Z,58.30
2018-12-11T01:28:22.232Z,68.52
2018-12-11T01:28:57.251Z,67.97
2018-12-11T01:29:32.093Z,69.35
2018-12-11T01:30:07.193Z,61.00
2018-12-11T01:30:41.971Z,64.05
2018-12-11T01:31:16.872Z,57.33
2018-12-11T01:31:51.932Z,73.52
2018-12-11T01:32:26.951Z,70.37
2018-12-11T01:33:01.971Z,68.07
2018-12-11T01:33:36.872Z,66.55
2018-12-11T01:34:12.011Z,61.95
2018-12-11T01:34:46.951Z,68.07
2018-12-11T01:35:21.811Z,64.20
2018-12-11T01:35:56.791Z,68.05
2018-12-11T01:36:31.810Z,61.98
2018-12-11T01:37:06.810Z,65.87
2018-12-11T01:37:41.870Z,64.82
2018-12-11T01:38:16.771Z,64.00
2018-12-11T01:38:51.751Z,70.45
2018-12-11T01:39:26.691Z,72.22
2018-12-11T01:40:01.743Z,67.27
2018-12-11T01:40:36.872Z,72.62
2018-12-11T01:41:11.810Z,67.78
2018-12-11T01:41:46.731Z,66.67
2018-12-11T01:42:22.011Z,60.03
2018-12-11T01:42:56.891Z,67.55
2018-12-11T01:43:31.831Z,66.53
2018-12-11T01:44:07.033Z,62.38
2018-12-11T01:44:42.178Z,70.87
2018-12-11T01:45:17.391Z,64.12
2018-12-11T01:45:52.391Z,58.60
2018-12-11T01:46:27.339Z,70.95
2018-12-11T01:47:02.353Z,62.00
2018-12-11T01:47:37.351Z,66.25
2018-12-11T01:48:12.431Z,59.42
2018-12-11T01:48:47.311Z,68.05
2018-12-11T01:49:22.294Z,62.05
2018-12-11T01:49:57.172Z,68.10
2018-12-11T01:50:32.191Z,63.30
2018-12-11T01:51:07.232Z,66.77
2018-12-11T01:51:42.191Z,65.25
2018-12-11T01:52:17.172Z,48.63
2018-12-11T01:52:52.353Z,66.85
2018-12-11T01:53:27.371Z,65.05
2018-12-11T01:54:02.592Z,64.03
2018-12-11T01:54:37.532Z,68.25
2018-12-11T01:55:12.351Z,60.15
2018-12-11T01:55:47.371Z,48.58
2018-12-11T01:56:22.371Z,62.38
2018-12-11T01:56:57.399Z,59.45
2018-12-11T01:57:32.352Z,47.93
2018-12-11T01:58:07.312Z,63.10
2018-12-11T01:58:42.352Z,60.92
2018-12-11T01:59:17.431Z,58.87
2018-12-11T01:59:52.351Z,63.75
2018-12-11T02:00:27.420Z,59.60
2018-12-11T02:01:02.592Z,56.05
2018-12-11T02:01:37.692Z,61.88
2018-12-11T02:02:12.760Z,46.55
2018-12-11T02:02:47.619Z,45.35
2018-12-11T02:03:22.639Z,52.95
2018-12-11T02:03:57.960Z,55.80
2018-12-11T02:04:32.754Z,50.98
2018-12-11T02:05:07.739Z,51.50
2018-12-11T02:05:42.731Z,51.10
2018-12-11T02:06:17.872Z,53.70
2018-12-11T02:06:52.900Z,51.42
2018-12-11T02:07:27.779Z,57.90
2018-12-11T02:08:02.891Z,53.48
2018-12-11T02:08:37.860Z,54.35
2018-12-11T02:09:12.940Z,53.65
2018-12-11T02:09:48.504Z,64.27
2018-12-11T02:10:23.531Z,53.20
2018-12-11T02:10:58.554Z,56.92
2018-12-11T02:11:33.539Z,55.30
2018-12-11T02:12:08.612Z,54.73
2018-12-11T02:12:43.473Z,55.78
2018-12-11T02:13:18.732Z,56.50
2018-12-11T02:13:53.760Z,56.80
2018-12-11T02:14:28.840Z,55.83
2018-12-11T02:15:03.972Z,48.63
2018-12-11T02:15:39.242Z,55.55
2018-12-11T02:16:14.151Z,42.98
2018-12-11T02:16:49.192Z,44.65
2018-12-11T02:17:24.112Z,39.45
2018-12-11T02:17:59.112Z,46.73
2018-12-11T02:18:33.991Z,44.10
2018-12-11T02:19:09.020Z,50.12
2018-12-11T02:19:44.101Z,47.67
2018-12-11T02:20:19.292Z,32.00
2018-12-11T02:20:54.232Z,39.92
2018-12-11T02:21:29.192Z,46.90
2018-12-11T02:22:04.052Z,42.23
2018-12-11T02:22:39.020Z,36.95
2018-12-11T02:23:14.072Z,45.67
2018-12-11T02:23:48.981Z,45.23
2018-12-11T02:24:23.892Z,45.73
2018-12-11T02:24:58.912Z,35.28
2018-12-11T02:25:33.832Z,38.08
2018-12-11T02:26:08.873Z,37.35
2018-12-11T02:26:44.007Z,37.17
2018-12-11T02:27:19.099Z,33.63
2018-12-11T02:27:54.012Z,33.00
2018-12-11T02:28:29.072Z,34.88
2018-12-11T02:29:03.852Z,28.83
2018-12-11T02:29:38.972Z,32.53
2018-12-11T02:30:14.234Z,35.83
2018-12-11T02:30:48.973Z,30.70
2018-12-11T02:31:23.935Z,31.07
2018-12-11T02:31:58.893Z,34.50
2018-12-11T02:32:33.812Z,31.35
2018-12-11T02:33:08.672Z,39.38
2018-12-11T02:33:43.632Z,41.73
2018-12-11T02:34:18.681Z,35.45
2018-12-11T02:34:53.536Z,42.05
2018-12-11T02:35:28.813Z,33.20
2018-12-11T02:36:03.732Z,34.43
2018-12-11T02:36:38.652Z,33.83
2018-12-11T02:37:13.533Z,35.45
2018-12-11T02:37:48.515Z,35.15
2018-12-11T02:38:23.552Z,34.75
2018-12-11T02:38:58.456Z,37.75
2018-12-11T02:39:33.657Z,33.73
2018-12-11T02:40:08.532Z,37.95
2018-12-11T02:40:43.652Z,34.10
2018-12-11T02:41:18.797Z,36.83
2018-12-11T02:41:53.816Z,28.20
2018-12-11T02:42:28.753Z,33.50
2018-12-11T02:43:03.733Z,33.85
2018-12-11T02:43:38.913Z,30.17
2018-12-11T02:44:13.794Z,36.80
2018-12-11T02:44:48.772Z,32.15
2018-12-11T02:45:23.673Z,38.55
2018-12-11T02:45:58.834Z,35.75
2018-12-11T02:46:33.773Z,33.23
2018-12-11T02:47:15.174Z,37.55
2018-12-11T02:47:50.093Z,34.25
2018-12-11T02:48:25.136Z,37.10
2018-12-11T02:49:00.094Z,38.70
2018-12-11T02:49:35.313Z,37.15
2018-12-11T02:50:10.753Z,45.73
2018-12-11T02:50:45.713Z,35.48
2018-12-11T02:51:20.693Z,43.42
2018-12-11T02:51:55.732Z,40.55
2018-12-11T02:52:30.796Z,45.90
2018-12-11T02:53:05.735Z,46.75
2018-12-11T02:53:40.874Z,39.30
2018-12-11T02:54:15.933Z,42.88
2018-12-11T02:54:50.955Z,37.48
2018-12-11T02:55:26.033Z,32.28
2018-12-11T02:56:01.061Z,38.35
2018-12-11T02:56:35.927Z,41.13
2018-12-11T02:57:10.932Z,45.17
2018-12-11T02:57:45.813Z,45.52
2018-12-11T02:58:20.894Z,42.45
2018-12-11T02:58:55.921Z,35.75
2018-12-11T02:59:30.993Z,42.30
2018-12-11T03:00:10.074Z,40.45
2018-12-11T03:00:44.993Z,38.30
2018-12-11T03:01:19.856Z,39.65
2018-12-11T03:01:55.053Z,42.93
2018-12-11T03:02:30.013Z,45.23
2018-12-11T03:03:05.214Z,38.63
2018-12-11T03:03:40.233Z,31.68
2018-12-11T03:04:15.253Z,34.30
2018-12-11T03:04:50.412Z,37.75
2018-12-11T03:05:25.437Z,40.92
2018-12-11T03:06:00.398Z,36.98
2018-12-11T03:06:35.694Z,36.93
2018-12-11T03:07:10.733Z,35.35
2018-12-11T03:07:45.713Z,35.13
2018-12-11T03:08:20.733Z,34.43
2018-12-11T03:08:55.657Z,33.75
2018-12-11T03:09:30.553Z,32.88
2018-12-11T03:10:06.573Z,31.10
2018-12-11T03:10:41.513Z,35.43
2018-12-11T03:11:16.402Z,35.45
2018-12-11T03:11:51.474Z,29.18
2018-12-11T03:12:26.575Z,31.42
2018-12-11T03:13:01.314Z,32.90
2018-12-11T03:13:36.292Z,31.73
2018-12-11T03:14:11.334Z,30.40
2018-12-11T03:14:46.257Z,28.45
2018-12-11T03:15:21.234Z,31.02
2018-12-11T03:15:56.373Z,27.48
2018-12-11T03:16:31.233Z,33.78
2018-12-11T03:17:06.134Z,32.45
2018-12-11T03:17:41.234Z,28.42
2018-12-11T03:18:16.263Z,35.52
2018-12-11T03:18:51.354Z,30.35
2018-12-11T03:19:26.294Z,33.15
2018-12-11T03:20:01.450Z,36.83
2018-12-11T03:20:36.373Z,34.95
2018-12-11T03:21:11.213Z,31.25
2018-12-11T03:21:46.254Z,29.65
2018-12-11T03:22:21.095Z,29.42
2018-12-11T03:22:56.092Z,32.95
2018-12-11T03:23:31.074Z,33.55
2018-12-11T03:24:05.978Z,31.62
2018-12-11T03:24:40.855Z,26.42
2018-12-11T03:25:15.776Z,30.02
2018-12-11T03:25:50.813Z,21.85
2018-12-11T03:26:25.755Z,31.40
2018-12-11T03:27:00.854Z,27.27
2018-12-11T03:27:36.013Z,35.03
2018-12-11T03:28:11.013Z,29.40
2018-12-11T03:28:46.434Z,33.08
2018-12-11T03:29:21.383Z,34.67
2018-12-11T03:29:56.453Z,27.87
2018-12-11T03:30:31.414Z,28.38
2018-12-11T03:31:06.595Z,24.85
2018-12-11T03:31:41.639Z,22.90
2018-12-11T03:32:16.535Z,26.55
2018-12-11T03:32:51.605Z,23.60
2018-12-11T03:33:26.600Z,29.60
2018-12-11T03:34:01.534Z,30.35
2018-12-11T03:34:36.433Z,22.13
2018-12-11T03:35:11.393Z,24.02
2018-12-11T03:35:46.376Z,27.15
2018-12-11T03:36:21.395Z,24.30
2018-12-11T03:36:56.441Z,23.57
2018-12-11T03:37:31.274Z,27.70
2018-12-11T03:38:06.233Z,29.72
2018-12-11T03:38:41.197Z,33.02
2018-12-11T03:39:16.197Z,29.10
2018-12-11T03:39:51.201Z,28.02
2018-12-11T03:40:26.114Z,28.25
2018-12-11T03:41:01.373Z,15.50
2018-12-11T03:41:36.434Z,24.72
2018-12-11T03:42:11.494Z,25.23
2018-12-11T03:42:46.554Z,26.40
2018-12-11T03:43:21.476Z,24.30
2018-12-11T03:43:56.753Z,23.15
2018-12-11T03:44:31.874Z,20.97
2018-12-11T03:45:07.093Z,22.77
2018-12-11T03:45:42.173Z,26.57
2018-12-11T03:46:17.113Z,29.77
2018-12-11T03:46:53.056Z,21.60
2018-12-11T03:47:28.074Z,23.35
2018-12-11T03:48:02.993Z,19.12
2018-12-11T03:48:37.954Z,19.20
2018-12-11T03:49:12.994Z,28.00
2018-12-11T03:49:47.933Z,26.35
2018-12-11T03:50:22.893Z,25.57
2018-12-11T03:50:57.874Z,29.37
2018-12-11T03:51:32.892Z,26.65
2018-12-11T03:52:07.817Z,31.33
2018-12-11T03:52:42.893Z,26.75
2018-12-11T03:53:17.713Z,24.82
2018-12-11T03:53:52.713Z,29.98
2018-12-11T03:54:27.834Z,32.70
2018-12-11T03:55:02.983Z,21.02
2018-12-11T03:55:37.934Z,31.45
2018-12-11T03:56:12.868Z,26.80
2018-12-11T03:56:47.882Z,21.57
2018-12-11T03:57:22.794Z,29.50
2018-12-11T03:57:57.633Z,36.08
2018-12-11T03:58:32.641Z,25.12
2018-12-11T03:59:07.613Z,24.12
2018-12-11T03:59:42.674Z,33.75
2018-12-11T04:00:17.714Z,34.03
2018-12-11T04:00:52.693Z,29.02
2018-12-11T04:01:27.714Z,38.15
2018-12-11T04:02:02.721Z,36.30
2018-12-11T04:02:37.732Z,28.00
2018-12-11T04:03:12.713Z,30.90
2018-12-11T04:03:47.515Z,29.37
2018-12-11T04:04:22.392Z,21.82
2018-12-11T04:04:57.417Z,34.95
2018-12-11T04:05:32.333Z,37.80
2018-12-11T04:06:07.383Z,40.55
2018-12-11T04:06:42.513Z,45.55
2018-12-11T04:07:17.353Z,42.33
2018-12-11T04:07:52.313Z,47.38
2018-12-11T04:08:27.473Z,51.00
2018-12-11T04:09:02.493Z,38.98
2018-12-11T04:09:37.317Z,38.17
2018-12-11T04:10:12.493Z,42.03
2018-12-11T04:10:47.376Z,44.05
2018-12-11T04:11:22.552Z,35.52
2018-12-11T04:11:57.585Z,43.15
2018-12-11T04:12:32.853Z,41.77
2018-12-11T04:13:07.693Z,45.50
2018-12-11T04:13:42.681Z,34.15
2018-12-11T04:14:17.997Z,38.17
2018-12-11T04:14:53.054Z,38.58
2018-12-11T04:15:28.333Z,37.08
2018-12-11T04:16:03.313Z,38.95
2018-12-11T04:16:38.293Z,44.45
2018-12-11T04:17:13.373Z,36.77
2018-12-11T04:17:48.273Z,37.50
2018-12-11T04:18:23.135Z,31.90
2018-12-11T04:18:57.894Z,31.10
2018-12-11T04:19:32.877Z,41.02
2018-12-11T04:20:08.573Z,29.65
2018-12-11T04:20:43.582Z,33.42
2018-12-11T04:21:18.554Z,43.35
2018-12-11T04:21:53.533Z,25.52
2018-12-11T04:22:28.473Z,37.35
2018-12-11T04:23:03.394Z,28.30
2018-12-11T04:23:38.334Z,30.15
2018-12-11T04:24:13.326Z,38.23
2018-12-11T04:24:47.938Z,34.78
2018-12-11T04:25:22.440Z,24.90
2018-12-11T04:25:57.431Z,38.65
2018-12-11T04:26:32.491Z,45.33
2018-12-11T04:27:07.435Z,41.88
2018-12-11T04:27:42.530Z,42.00
2018-12-11T04:28:17.691Z,30.85
2018-12-11T04:28:52.751Z,34.35
2018-12-11T04:29:28.111Z,26.20
2018-12-11T04:30:03.172Z,35.83
2018-12-11T04:30:38.052Z,31.17
2018-12-11T04:31:13.040Z,23.75
2018-12-11T04:31:48.179Z,32.75
2018-12-11T04:32:23.131Z,37.58
2018-12-11T04:32:58.011Z,41.08
2018-12-11T04:33:33.331Z,39.38
2018-12-11T04:34:08.292Z,32.20
2018-12-11T04:34:43.211Z,38.00
2018-12-11T04:35:18.171Z,26.00
2018-12-11T04:35:53.039Z,29.02
2018-12-11T04:36:28.034Z,35.13
2018-12-11T04:37:03.211Z,38.58
2018-12-11T04:37:38.320Z,33.10
2018-12-11T04:38:13.291Z,43.33
2018-12-11T04:38:48.460Z,41.55
2018-12-11T04:39:23.651Z,39.70
2018-12-11T04:39:58.791Z,44.45
2018-12-11T04:40:33.772Z,40.95
2018-12-11T04:41:08.851Z,46.48
2018-12-11T04:41:43.996Z,48.63
2018-12-11T04:42:18.972Z,40.17
2018-12-11T04:42:53.812Z,46.98
2018-12-11T04:43:28.831Z,41.80
2018-12-11T04:44:03.872Z,40.95
2018-12-11T04:44:39.091Z,40.20
2018-12-11T04:45:14.031Z,37.25
2018-12-11T04:45:48.995Z,38.58
2018-12-11T04:46:24.031Z,43.58
2018-12-11T04:46:59.212Z,43.25
2018-12-11T04:47:34.414Z,36.88
2018-12-11T04:48:09.271Z,37.73
2018-12-11T04:48:44.291Z,44.88
2018-12-11T04:49:19.391Z,47.30
2018-12-11T04:49:54.270Z,52.43
2018-12-11T04:50:29.271Z,38.98
2018-12-11T04:51:04.179Z,47.10
2018-12-11T04:51:39.311Z,45.85
2018-12-11T04:52:14.370Z,44.30
2018-12-11T04:52:49.233Z,55.08
2018-12-11T04:53:24.231Z,53.90
2018-12-11T04:53:59.212Z,48.98
2018-12-11T04:54:34.131Z,50.67
2018-12-11T04:55:09.292Z,52.90
2018-12-11T04:55:44.171Z,51.90
2018-12-11T04:56:19.734Z,49.30
2018-12-11T04:56:54.969Z,47.98
2018-12-11T04:57:30.260Z,43.98
2018-12-11T04:58:05.393Z,40.70
2018-12-11T04:58:40.473Z,58.23
2018-12-11T04:59:15.413Z,49.53
2018-12-11T04:59:50.413Z,48.48
2018-12-11T05:00:25.552Z,48.55
2018-12-11T05:01:00.693Z,54.10
2018-12-11T05:01:35.613Z,55.38
2018-12-11T05:02:10.693Z,59.13
2018-12-11T05:02:45.793Z,54.55
2018-12-11T05:03:20.698Z,51.40
2018-12-11T05:03:55.853Z,49.38
2018-12-11T05:04:30.737Z,48.08
2018-12-11T05:05:06.593Z,48.58
2018-12-11T05:05:41.573Z,50.48
2018-12-11T05:06:16.573Z,56.25
2018-12-11T05:06:51.592Z,56.10
2018-12-11T05:07:26.652Z,54.50
2018-12-11T05:08:03.561Z,60.30
2018-12-11T05:08:38.493Z,46.85
2018-12-11T05:09:13.632Z,57.62
2018-12-11T05:09:48.753Z,50.58
2018-12-11T05:10:23.673Z,60.15
2018-12-11T05:10:58.693Z,54.65
2018-12-11T05:11:33.634Z,67.17
2018-12-11T05:12:08.655Z,62.00
2018-12-11T05:12:43.593Z,77.15
2018-12-11T05:13:18.632Z,67.87
2018-12-11T05:13:53.601Z,62.23
2018-12-11T05:14:28.634Z,54.38
2018-12-11T05:15:03.893Z,57.98
2018-12-11T05:15:38.932Z,74.07
2018-12-11T05:16:13.853Z,85.07
2018-12-11T05:16:48.793Z,64.75
2018-12-11T05:17:23.692Z,65.37
2018-12-11T05:17:58.733Z,52.60
2018-12-11T05:18:33.833Z,69.30
2018-12-11T05:19:08.756Z,51.60
2018-12-11T05:19:43.673Z,57.48
2018-12-11T05:20:18.761Z,61.68
2018-12-11T05:20:53.697Z,53.98
2018-12-11T05:21:28.794Z,46.95
2018-12-11T05:22:03.973Z,53.33
2018-12-11T05:22:39.033Z,58.02
2018-12-11T05:23:14.053Z,63.80
2018-12-11T05:23:49.194Z,63.50
2018-12-11T05:24:24.167Z,49.58
2018-12-11T05:24:59.415Z,67.65
2018-12-11T05:25:34.396Z,62.73
2018-12-11T05:26:09.306Z,52.98
2018-12-11T05:26:44.376Z,54.25
2018-12-11T05:27:19.324Z,55.92
2018-12-11T05:27:54.205Z,57.95
2018-12-11T05:28:29.417Z,69.00
2018-12-11T05:29:04.438Z,62.13
2018-12-11T05:29:39.376Z,64.85
2018-12-11T05:30:14.384Z,66.00
2018-12-11T05:30:49.416Z,64.62
2018-12-11T05:31:24.376Z,46.88
2018-12-11T05:31:59.976Z,56.80
2018-12-11T05:32:35.057Z,62.93
2018-12-11T05:33:09.996Z,64.30
2018-12-11T05:33:44.916Z,70.10
2018-12-11T05:34:19.936Z,75.52
2018-12-11T05:34:55.076Z,72.12
2018-12-11T05:35:30.017Z,72.30
2018-12-11T05:36:05.176Z,53.68
2018-12-11T05:36:40.419Z,71.50
2018-12-11T05:37:15.278Z,59.23
2018-12-11T05:37:50.357Z,64.75
2018-12-11T05:38:25.777Z,64.92
2018-12-11T05:39:00.977Z,73.35
2018-12-11T05:39:36.037Z,68.78
2018-12-11T05:40:11.077Z,59.83
2018-12-11T05:40:46.016Z,81.70
2018-12-11T05:41:20.917Z,65.32
2018-12-11T05:41:55.736Z,67.50
2018-12-11T05:42:30.656Z,65.60
2018-12-11T05:43:05.676Z,65.75
2018-12-11T05:43:40.616Z,59.08
2018-12-11T05:44:15.656Z,61.80
2018-12-11T05:44:50.636Z,63.35
2018-12-11T05:45:25.524Z,54.35
2018-12-11T05:46:00.617Z,53.00
2018-12-11T05:46:35.697Z,64.92
2018-12-11T05:47:10.777Z,78.92
2018-12-11T05:47:45.776Z,59.03
2018-12-11T05:48:20.564Z,48.30
2018-12-11T05:48:55.536Z,40.25
2018-12-11T05:49:30.543Z,53.08
2018-12-11T05:50:06.118Z,66.07
2018-12-11T05:50:41.239Z,55.52
2018-12-11T05:51:16.237Z,51.00
2018-12-11T05:51:51.343Z,56.13
2018-12-11T05:52:26.316Z,54.88
2018-12-11T05:53:01.376Z,57.85
2018-12-11T05:53:36.256Z,61.48
2018-12-11T05:54:11.177Z,52.98
2018-12-11T05:54:46.137Z,51.13
2018-12-11T05:55:21.215Z,54.93
2018-12-11T05:55:56.156Z,52.13
2018-12-11T05:56:31.225Z,55.45
2018-12-11T05:57:06.293Z,58.87
2018-12-11T05:57:41.086Z,56.30
2018-12-11T05:58:16.117Z,55.63
2018-12-11T05:58:51.138Z,51.02
2018-12-11T05:59:25.969Z,48.10
2018-12-11T06:00:01.060Z,57.85
2018-12-11T06:00:36.141Z,58.33
2018-12-11T06:01:11.245Z,64.22
2018-12-11T06:01:46.367Z,56.50
2018-12-11T06:02:21.263Z,57.75
2018-12-11T06:02:56.868Z,48.95
2018-12-11T06:03:32.020Z,56.75
2018-12-11T06:04:06.954Z,51.70
2018-12-11T06:04:41.975Z,46.92
2018-12-11T06:05:16.835Z,43.55
2018-12-11T06:05:51.895Z,61.92
2018-12-11T06:06:26.955Z,43.83
2018-12-11T06:07:01.674Z,40.52
2018-12-11T06:07:36.635Z,38.78
2018-12-11T06:08:11.575Z,43.17
2018-12-11T06:08:46.415Z,53.00
2018-12-11T06:09:21.315Z,51.05
2018-12-11T06:09:55.935Z,51.92
2018-12-11T06:10:30.495Z,51.23
2018-12-11T06:11:05.174Z,50.67
2018-12-11T06:11:39.796Z,52.80
2018-12-11T06:12:14.735Z,52.80
2018-12-11T06:12:49.754Z,53.90
2018-12-11T06:13:24.855Z,54.30
2018-12-11T06:13:59.794Z,62.13
2018-12-11T06:14:34.835Z,47.75
2018-12-11T06:15:09.774Z,44.63
2018-12-11T06:15:44.674Z,55.25
2018-12-11T06:16:19.763Z,64.40
2018-12-11T06:16:54.634Z,58.38
2018-12-11T06:17:29.436Z,53.58
2018-12-11T06:18:04.414Z,61.48
2018-12-11T06:18:39.402Z,51.83
2018-12-11T06:19:14.434Z,53.05
2018-12-11T06:19:49.379Z,51.50
2018-12-11T06:20:24.414Z,57.62
2018-12-11T06:20:59.570Z,53.68
2018-12-11T06:21:34.554Z,56.42
2018-12-11T06:22:09.602Z,49.90
2018-12-11T06:22:44.535Z,64.05
2018-12-11T06:23:19.464Z,57.20
2018-12-11T06:23:54.434Z,58.65
2018-12-11T06:24:29.354Z,58.52
2018-12-11T06:25:04.766Z,55.75
2018-12-11T06:25:40.054Z,55.90
2018-12-11T06:26:15.014Z,61.25
2018-12-11T06:26:50.039Z,47.30
2018-12-11T06:27:25.142Z,52.70
2018-12-11T06:28:00.094Z,57.85
2018-12-11T06:28:36.265Z,40.55
2018-12-11T06:29:11.576Z,43.92
2018-12-11T06:29:46.633Z,45.95
2018-12-11T06:30:21.515Z,50.83
2018-12-11T06:30:56.594Z,45.23
2018-12-11T06:31:31.658Z,45.50
2018-12-11T06:32:06.794Z,46.15
2018-12-11T06:32:41.814Z,34.83
2018-12-11T06:33:16.694Z,45.52
2018-12-11T06:33:51.634Z,46.88
2018-12-11T06:34:26.594Z,43.10
2018-12-11T06:35:01.623Z,62.88
2018-12-11T06:35:36.474Z,43.65
2018-12-11T06:36:11.535Z,50.33
2018-12-11T06:36:46.502Z,47.95
2018-12-11T06:37:21.596Z,53.40
2018-12-11T06:37:56.674Z,47.50
2018-12-11T06:38:31.623Z,57.38
2018-12-11T06:39:07.634Z,55.78
2018-12-11T06:39:42.594Z,53.48
2018-12-11T06:40:17.417Z,54.88
2018-12-11T06:40:52.416Z,53.55
2018-12-11T06:41:27.434Z,55.25
2018-12-11T06:42:02.275Z,61.80
2018-12-11T06:42:37.342Z,55.15
2018-12-11T06:43:12.395Z,67.08
2018-12-11T06:43:47.454Z,52.30
2018-12-11T06:44:22.354Z,50.88
2018-12-11T06:44:57.234Z,65.55
2018-12-11T06:45:32.175Z,60.90
2018-12-11T06:46:07.134Z,61.20
2018-12-11T06:46:42.094Z,55.45
2018-12-11T06:47:17.114Z,62.35
2018-12-11T06:47:52.174Z,62.45
2018-12-11T06:48:27.154Z,68.47
2018-12-11T06:49:02.181Z,46.70
2018-12-11T06:49:37.353Z,49.77
2018-12-11T06:50:12.362Z,63.13
2018-12-11T06:50:47.415Z,69.77
2018-12-11T06:51:22.375Z,74.92
2018-12-11T06:51:57.615Z,68.78
2018-12-11T06:52:32.633Z,71.82
2018-12-11T06:53:07.738Z,55.40
2018-12-11T06:53:42.735Z,61.42
2018-12-11T06:54:17.793Z,69.20
2018-12-11T06:54:52.975Z,65.65
2018-12-11T06:55:28.234Z,66.87
2018-12-11T06:56:03.314Z,66.87
2018-12-11T06:56:38.194Z,54.42
2018-12-11T06:57:13.355Z,57.45
2018-12-11T06:57:48.377Z,65.80
2018-12-11T06:58:23.413Z,58.13
2018-12-11T06:58:58.614Z,55.88
2018-12-11T06:59:33.513Z,69.45
2018-12-11T07:00:08.913Z,61.68
2018-12-11T07:00:43.734Z,75.45
2018-12-11T07:01:18.796Z,79.25
2018-12-11T07:01:54.134Z,81.15
2018-12-11T07:02:29.153Z,70.25
2018-12-11T07:03:04.515Z,69.82
2018-12-11T07:03:39.637Z,58.68
2018-12-11T07:04:14.613Z,66.37
2018-12-11T07:04:49.533Z,70.00
2018-12-11T07:05:24.414Z,70.75
2018-12-11T07:05:59.353Z,63.15
2018-12-11T07:06:34.213Z,63.75
2018-12-11T07:07:09.181Z,65.95
2018-12-11T07:07:44.153Z,70.78
2018-12-11T07:08:19.174Z,74.17
2018-12-11T07:08:54.555Z,83.10
2018-12-11T07:09:29.733Z,84.52
2018-12-11T07:10:05.037Z,84.30
2018-12-11T07:10:39.976Z,77.72
2018-12-11T07:11:14.914Z,75.08
2018-12-11T07:11:49.976Z,75.83
2018-12-11T07:12:24.835Z,75.85
2018-12-11T07:12:59.853Z,65.00
2018-12-11T07:13:34.713Z,73.15
2018-12-11T07:14:09.934Z,69.25
2018-12-11T07:14:44.854Z,62.67
2018-12-11T07:15:19.956Z,65.20
2018-12-11T07:15:55.214Z,50.85
2018-12-11T07:16:30.393Z,64.58
2018-12-11T07:17:05.495Z,65.05
2018-12-11T07:17:40.374Z,65.35
2018-12-11T07:18:18.337Z,66.07
2018-12-11T07:18:53.696Z,67.58
2018-12-11T07:19:28.777Z,54.70
2018-12-11T07:20:03.998Z,55.08
2018-12-11T07:20:38.860Z,60.20
2018-12-11T07:21:14.017Z,59.10
2018-12-11T07:21:49.177Z,58.35
2018-12-11T07:22:24.118Z,65.97
2018-12-11T07:22:59.157Z,67.72
2018-12-11T07:23:34.077Z,60.03
2018-12-11T07:24:08.977Z,67.40
2018-12-11T07:24:44.057Z,61.45
2018-12-11T07:25:18.998Z,55.80
2018-12-11T07:25:53.998Z,60.43
2018-12-11T07:26:29.038Z,59.95
2018-12-11T07:27:04.036Z,56.88
2018-12-11T07:27:39.097Z,53.45
2018-12-11T07:28:13.977Z,64.15
2018-12-11T07:28:48.926Z,62.58
2018-12-11T07:29:23.886Z,56.15
2018-12-11T07:29:58.862Z,55.88
2018-12-11T07:30:33.957Z,49.88
2018-12-11T07:31:08.797Z,57.30